Time;durP1;ratioP1;P1;durP2;ratioP2;P2;SDS_P1;SDS_P2;PMS_P1;PMS_P2;Temp;Humidity;BMP_temperature;BMP_pressure;BME280_temperature;BME280_humidity;BME280_pressure;Samples;Min_cycle;Max_cycle;Signal;HPM_P1;HPM_P2
2022/05/28 00:02:15;;;;;;;2.92;1.05;;;;;;;20.82;48.38;102266.06;5086337;28;20052;-49
2022/05/28 00:04:41;;;;;;;4.70;1.42;;;;;;;20.82;48.09;102274.16;5082181;28;20075;-47
2022/05/28 00:07:08;;;;;;;4.18;1.10;;;;;;;20.80;48.66;102271.59;5086814;28;20064;-50
2022/05/28 00:09:34;;;;;;;2.92;1.23;;;;;;;20.79;48.64;102261.81;5085803;28;20048;-50
2022/05/28 00:12:01;;;;;;;3.22;1.10;;;;;;;20.79;48.35;102267.22;5081592;28;20085;-50
2022/05/28 00:14:27;;;;;;;1.40;0.77;;;;;;;20.78;48.12;102262.78;5079300;28;20059;-49
2022/05/28 00:16:56;;;;;;;2.75;1.33;;;;;;;20.78;48.27;102261.94;5080024;28;20094;-51
2022/05/28 00:19:22;;;;;;;4.07;1.02;;;;;;;20.77;48.52;102271.03;5080392;28;20056;-48
2022/05/28 00:21:49;;;;;;;3.03;1.17;;;;;;;20.76;48.13;102272.03;5079316;28;20432;-49
2022/05/28 00:24:16;;;;;;;2.78;0.90;;;;;;;20.76;48.76;102272.03;5085942;28;20044;-49
2022/05/28 00:26:43;;;;;;;3.55;0.90;;;;;;;20.75;48.49;102273.03;5081091;28;20041;-51
2022/05/28 00:29:10;;;;;;;3.75;1.30;;;;;;;20.75;48.56;102268.47;5081480;28;20076;-51
2022/05/28 00:31:37;;;;;;;2.80;0.98;;;;;;;20.75;48.71;102270.31;5082481;28;20050;-49
2022/05/28 00:34:04;;;;;;;3.28;0.95;;;;;;;20.74;48.66;102271.28;5081277;28;20135;-50
2022/05/28 00:36:31;;;;;;;3.30;0.95;;;;;;;20.73;48.43;102275.00;5081176;28;20044;-49
2022/05/28 00:38:58;;;;;;;3.38;1.10;;;;;;;20.73;48.28;102275.84;5081614;28;20044;-50
2022/05/28 00:41:24;;;;;;;2.65;0.88;;;;;;;20.72;48.49;102278.69;5083370;28;20036;-49
2022/05/28 00:43:51;;;;;;;3.10;1.17;;;;;;;20.72;48.81;102293.00;5081621;28;20036;-48
2022/05/28 00:46:22;;;;;;;2.03;0.90;;;;;;;20.71;48.31;102288.59;5079912;28;20040;-50
2022/05/28 00:49:00;;;;;;;3.00;1.05;;;;;;;20.70;48.71;102284.19;5079276;28;20051;-50
2022/05/28 00:51:33;;;;;;;2.25;1.17;;;;;;;20.69;48.67;102286.03;5080986;28;20519;-48
2022/05/28 00:54:04;;;;;;;2.55;0.85;;;;;;;20.69;48.52;102280.63;5080808;28;20086;-49
2022/05/28 00:56:31;;;;;;;3.25;1.13;;;;;;;20.68;48.53;102278.94;5081466;28;20056;-47
2022/05/28 00:58:58;;;;;;;2.88;1.08;;;;;;;20.67;48.99;102277.25;5086511;28;20055;-49
2022/05/28 01:01:27;;;;;;;3.05;1.08;;;;;;;20.67;48.55;102274.56;5086746;28;20123;-46
2022/05/28 01:04:03;;;;;;;1.75;0.68;;;;;;;20.66;48.37;102277.38;5084910;28;20044;-48
2022/05/28 01:06:41;;;;;;;5.60;1.45;;;;;;;20.65;48.34;102276.50;5083076;28;20297;-48
2022/05/28 01:09:15;;;;;;;4.00;1.00;;;;;;;20.65;49.05;102267.59;5081126;28;20036;-46
2022/05/28 01:12:00;;;;;;;2.90;1.17;;;;;;;20.65;48.81;102263.03;5081983;28;20147;-47
2022/05/28 01:14:58;;;;;;;3.67;1.20;;;;;;;20.62;49.08;102257.94;5082878;28;20036;-50
2022/05/28 01:17:33;;;;;;;2.33;0.82;;;;;;;20.62;48.53;102259.75;5085896;28;20050;-49
2022/05/28 01:20:00;;;;;;;2.83;0.93;;;;;;;20.61;48.67;102258.06;5084160;28;20345;-49
2022/05/28 01:22:54;;;;;;;2.97;0.98;;;;;;;20.60;48.59;102251.84;5090609;28;20068;-49
2022/05/28 01:25:24;;;;;;;3.10;1.20;;;;;;;20.60;48.70;102253.69;5084553;28;20334;-49
2022/05/28 01:27:59;;;;;;;3.70;0.80;;;;;;;20.59;48.93;102247.44;5083922;28;20036;-48
2022/05/28 01:30:25;;;;;;;2.17;0.82;;;;;;;20.60;48.96;102241.06;5081187;28;20044;-48
2022/05/28 01:32:54;;;;;;;2.05;0.82;;;;;;;20.58;48.95;102245.75;5079152;28;20041;-49
2022/05/28 01:35:23;;;;;;;3.28;1.05;;;;;;;20.58;48.67;102251.13;5080840;28;20052;-47
2022/05/28 01:37:51;;;;;;;2.97;0.93;;;;;;;20.57;48.99;102257.47;5081924;28;20139;-52
2022/05/28 01:40:21;;;;;;;3.05;1.15;;;;;;;20.58;48.93;102259.22;5082566;28;20051;-49
2022/05/28 01:42:51;;;;;;;4.05;0.90;;;;;;;20.55;48.63;102256.78;5085629;28;20036;-49
2022/05/28 01:45:21;;;;;;;4.18;1.13;;;;;;;20.57;49.16;102252.09;5081643;28;20595;-49
2022/05/28 01:47:51;;;;;;;4.53;1.00;;;;;;;20.55;48.83;102248.69;5082861;28;20062;-45
2022/05/28 01:50:21;;;;;;;2.78;1.10;;;;;;;20.55;48.91;102246.00;5084765;28;20304;-49
2022/05/28 01:52:48;;;;;;;1.83;0.85;;;;;;;20.54;49.17;102246.97;5077873;28;20041;-49
2022/05/28 01:55:18;;;;;;;1.58;0.90;;;;;;;20.53;48.66;102255.19;5074890;28;20055;-50
2022/05/28 01:57:45;;;;;;;5.40;1.25;;;;;;;20.53;48.78;102261.44;5077734;28;20051;-48
2022/05/28 02:00:13;;;;;;;2.00;0.75;;;;;;;20.53;49.25;102263.28;5078859;28;20044;-48
2022/05/28 02:02:39;;;;;;;2.42;1.17;;;;;;;20.52;48.73;102264.28;5080390;28;20059;-49
2022/05/28 02:05:06;;;;;;;3.30;1.10;;;;;;;20.51;48.86;102260.75;5085718;28;20394;-49
2022/05/28 02:07:33;;;;;;;3.83;2.08;;;;;;;20.50;48.76;102260.84;5077940;28;20447;-46
2022/05/28 02:10:15;;;;;;;4.25;1.48;;;;;;;20.48;49.03;102263.66;5080541;28;20171;-46
2022/05/28 02:12:53;;;;;;;3.80;0.98;;;;;;;20.49;48.92;102262.69;5080322;28;20048;-46
2022/05/28 02:15:34;;;;;;;3.67;0.98;;;;;;;20.47;49.31;102261.97;5080201;28;20042;-48
2022/05/28 02:18:13;;;;;;;2.08;0.90;;;;;;;20.46;49.07;102258.41;5079407;28;20072;-46
2022/05/28 02:21:06;;;;;;;3.95;0.88;;;;;;;20.46;49.39;102254.84;5077429;28;20052;-48
2022/05/28 02:23:36;;;;;;;4.37;1.27;;;;;;;20.45;48.92;102250.47;5075665;28;20045;-50
2022/05/28 02:26:13;;;;;;;1.48;0.80;;;;;;;20.45;49.70;102258.53;5077020;28;20519;-48
2022/05/28 02:28:42;;;;;;;2.75;0.88;;;;;;;20.44;48.95;102252.31;5079429;28;20041;-47
2022/05/28 02:31:15;;;;;;;3.45;1.20;;;;;;;20.43;49.27;102256.00;5075445;28;20080;-46
2022/05/28 02:33:43;;;;;;;3.53;1.10;;;;;;;20.43;49.23;102265.91;5081639;28;20051;-46
2022/05/28 02:36:15;;;;;;;2.97;0.90;;;;;;;20.44;49.59;102262.22;5079343;28;20052;-50
2022/05/28 02:38:42;;;;;;;3.13;1.05;;;;;;;20.41;49.63;102263.34;5080886;28;20431;-47
2022/05/28 02:41:09;;;;;;;6.20;1.40;;;;;;;20.41;49.70;102262.50;5082002;28;20070;-48
2022/05/28 02:43:36;;;;;;;2.60;0.70;;;;;;;20.41;49.48;102268.72;5077184;28;20428;-50
2022/05/28 02:46:05;;;;;;;2.75;0.80;;;;;;;20.41;49.11;102262.50;5081666;28;20062;-48
2022/05/28 02:48:32;;;;;;;3.10;0.90;;;;;;;20.40;49.46;102263.47;5077639;28;20144;-51
2022/05/28 02:51:11;;;;;;;3.28;0.98;;;;;;;20.38;49.52;102258.25;5074175;28;20046;-51
2022/05/28 02:53:38;;;;;;;3.95;1.33;;;;;;;20.39;49.10;102259.09;5074808;28;20056;-48
2022/05/28 02:56:06;;;;;;;3.22;1.20;;;;;;;20.39;49.36;102256.41;5081420;28;20048;-49
2022/05/28 02:58:33;;;;;;;3.65;1.02;;;;;;;20.39;49.66;102253.72;5085537;28;20044;-49
2022/05/28 03:01:00;;;;;;;1.75;0.70;;;;;;;20.38;49.34;102260.94;5082312;28;20048;-50
2022/05/28 03:03:28;;;;;;;2.45;1.10;;;;;;;20.40;48.95;102263.47;5085276;28;20037;-50
2022/05/28 03:05:55;;;;;;;2.70;0.80;;;;;;;20.39;49.29;102259.09;5083954;28;20431;-51
2022/05/28 03:08:21;;;;;;;1.80;0.75;;;;;;;20.37;49.39;102263.75;5079243;28;20091;-48
2022/05/28 03:10:48;;;;;;;3.45;1.08;;;;;;;20.37;48.92;102259.22;5079959;28;20040;-47
2022/05/28 03:13:14;;;;;;;4.45;1.27;;;;;;;20.37;49.10;102263.75;5078215;28;20040;-48
2022/05/28 03:15:41;;;;;;;4.95;1.35;;;;;;;20.36;49.37;102279.06;5080917;28;20050;-46
2022/05/28 03:18:08;;;;;;;2.35;0.82;;;;;;;20.35;49.62;102263.88;5081328;28;20106;-45
2022/05/28 03:20:34;;;;;;;3.00;0.90;;;;;;;20.35;49.00;102266.59;5079655;28;20054;-45
2022/05/28 03:23:01;;;;;;;3.50;1.02;;;;;;;20.35;49.62;102265.72;5083577;28;20044;-49
2022/05/28 03:25:27;;;;;;;1.15;0.70;;;;;;;20.35;49.37;102271.13;5082705;28;20711;-46
2022/05/28 03:27:54;;;;;;;6.18;1.02;;;;;;;20.33;49.42;102271.22;5080215;28;20067;-48
2022/05/28 03:30:21;;;;;;;4.28;1.35;;;;;;;20.34;49.48;102272.09;5081326;28;20044;-50
2022/05/28 03:32:47;;;;;;;2.85;0.85;;;;;;;20.33;49.41;102276.63;5076723;28;20132;-45
2022/05/28 03:35:14;;;;;;;3.70;1.00;;;;;;;20.32;49.10;102274.94;5079971;28;20323;-48
2022/05/28 03:37:40;;;;;;;2.15;0.85;;;;;;;20.32;48.93;102274.94;5079016;28;20055;-49
2022/05/28 03:40:07;;;;;;;4.18;0.98;;;;;;;20.32;49.19;102274.06;5082442;28;20055;-48
2022/05/28 03:42:34;;;;;;;2.13;0.77;;;;;;;20.31;49.45;102283.16;5082882;28;20052;-50
2022/05/28 03:45:00;;;;;;;2.80;0.90;;;;;;;20.30;49.19;102286.81;5086084;28;20043;-48
2022/05/28 03:47:30;;;;;;;2.40;0.88;;;;;;;20.30;49.53;102290.38;5083743;28;20123;-49
2022/05/28 03:49:57;;;;;;;4.40;1.00;;;;;;;20.30;49.62;102286.81;5082049;28;20123;-48
2022/05/28 03:52:23;;;;;;;4.43;1.15;;;;;;;20.29;49.12;102285.09;5080152;28;20143;-49
2022/05/28 03:54:50;;;;;;;2.90;1.00;;;;;;;20.29;49.16;102288.66;5079036;28;20036;-46
2022/05/28 03:57:31;;;;;;;2.97;1.05;;;;;;;20.27;49.71;102293.31;5080065;28;20056;-48
2022/05/28 03:59:58;;;;;;;1.50;0.70;;;;;;;20.29;49.47;102293.19;5082675;28;20487;-49
2022/05/28 04:02:25;;;;;;;4.45;0.90;;;;;;;20.26;49.57;102299.72;5081544;28;20051;-46
2022/05/28 04:04:52;;;;;;;5.22;1.15;;;;;;;20.26;49.15;102294.31;5080386;28;20109;-51
2022/05/28 04:07:19;;;;;;;2.33;0.90;;;;;;;20.27;48.86;102296.03;5077325;28;20447;-49
2022/05/28 04:09:46;;;;;;;2.53;0.90;;;;;;;20.27;49.73;102290.63;5080203;28;20058;-49
2022/05/28 04:12:13;;;;;;;1.63;0.75;;;;;;;20.28;49.26;102288.78;5082621;28;20430;-47
2022/05/28 04:14:40;;;;;;;2.42;0.70;;;;;;;20.28;49.48;102291.47;5082225;28;20051;-46
2022/05/28 04:17:07;;;;;;;2.33;0.90;;;;;;;20.26;49.45;102294.31;5085211;28;20323;-49
2022/05/28 04:19:38;;;;;;;2.97;0.93;;;;;;;20.27;48.89;102293.31;5083677;28;20151;-47
2022/05/28 04:22:04;;;;;;;2.58;0.70;;;;;;;20.27;49.51;102297.88;5084878;28;20400;-47
2022/05/28 04:24:32;;;;;;;3.55;1.00;;;;;;;20.28;49.35;102296.88;5084510;28;20051;-47
2022/05/28 04:26:58;;;;;;;3.58;1.00;;;;;;;20.28;49.04;102302.25;5084217;28;20043;-49
2022/05/28 04:29:25;;;;;;;2.83;0.85;;;;;;;20.27;48.91;102296.03;5080624;28;20332;-51
2022/05/28 04:31:51;;;;;;;2.10;0.88;;;;;;;20.29;49.63;102304.81;5080991;28;20041;-49
2022/05/28 04:34:18;;;;;;;3.20;0.85;;;;;;;20.30;48.91;102309.22;5078398;28;20311;-50
2022/05/28 04:36:44;;;;;;;3.63;1.05;;;;;;;20.32;49.06;102314.47;5085818;28;20060;-48
2022/05/28 04:39:11;;;;;;;1.73;0.80;;;;;;;20.32;48.94;102312.63;5086975;28;20051;-50
2022/05/28 04:41:37;;;;;;;1.80;0.75;;;;;;;20.35;49.38;102311.50;5085625;28;20143;-48
2022/05/28 04:44:04;;;;;;;1.73;0.65;;;;;;;20.37;48.87;102317.59;5086189;28;20374;-47
2022/05/28 04:46:30;;;;;;;2.97;0.85;;;;;;;20.38;49.18;102312.09;5081983;28;20055;-48
2022/05/28 04:48:57;;;;;;;4.15;1.08;;;;;;;20.41;48.79;102314.50;5082137;28;20445;-46
2022/05/28 04:51:24;;;;;;;1.58;0.63;;;;;;;20.43;48.79;102317.09;5080087;28;20044;-49
2022/05/28 04:53:51;;;;;;;2.17;0.70;;;;;;;20.45;49.13;102315.09;5080137;28;20036;-45
2022/05/28 04:56:17;;;;;;;1.80;0.60;;;;;;;20.48;48.94;102314.00;5084742;28;20044;-48
2022/05/28 04:58:44;;;;;;;4.82;0.85;;;;;;;20.48;48.72;102314.00;5085046;28;20058;-47
2022/05/28 05:01:13;;;;;;;2.63;1.10;;;;;;;20.48;48.78;102320.22;5087331;28;20050;-47
2022/05/28 05:03:40;;;;;;;4.20;1.05;;;;;;;20.48;48.54;102320.22;5086036;28;20126;-50
2022/05/28 05:06:06;;;;;;;2.60;0.50;;;;;;;20.50;48.69;102318.25;5084648;28;20047;-49
2022/05/28 05:08:38;;;;;;;1.92;0.70;;;;;;;20.52;48.65;102324.38;5083854;28;20062;-50
2022/05/28 05:11:04;;;;;;;3.45;0.98;;;;;;;20.53;48.90;102323.38;5081540;28;20040;-46
2022/05/28 05:13:31;;;;;;;2.83;0.80;;;;;;;20.55;48.78;102331.34;5078569;28;20355;-50
2022/05/28 05:15:57;;;;;;;2.75;0.80;;;;;;;20.58;48.11;102331.06;5079074;28;20036;-52
2022/05/28 05:18:24;;;;;;;2.03;0.80;;;;;;;20.58;48.31;102331.94;5080452;28;20032;-51
2022/05/28 05:20:50;;;;;;;1.63;0.60;;;;;;;20.58;48.41;102329.25;5081527;28;20456;-50
2022/05/28 05:23:17;;;;;;;1.60;0.60;;;;;;;20.59;48.16;102332.78;5081241;28;20039;-50
2022/05/28 05:25:44;;;;;;;2.25;0.88;;;;;;;20.58;48.48;102326.56;5084699;28;20149;-50
2022/05/28 05:28:10;;;;;;;1.58;0.73;;;;;;;20.59;48.69;102328.25;5079326;28;20046;-49
2022/05/28 05:30:37;;;;;;;2.75;0.80;;;;;;;20.59;48.64;102327.41;5080607;28;20056;-47
2022/05/28 05:33:03;;;;;;;1.75;0.80;;;;;;;20.58;48.19;102328.38;5078240;28;20044;-48
2022/05/28 05:35:30;;;;;;;1.70;0.63;;;;;;;20.57;48.25;102332.06;5077631;28;20036;-46
2022/05/28 05:37:58;;;;;;;2.47;0.70;;;;;;;20.55;48.00;102334.06;5078986;28;20052;-48
2022/05/28 05:40:25;;;;;;;1.67;0.65;;;;;;;20.53;48.69;102334.16;5078148;28;20051;-45
2022/05/28 05:42:52;;;;;;;5.00;0.98;;;;;;;20.53;48.09;102338.72;5081551;28;20044;-47
2022/05/28 05:45:18;;;;;;;3.40;0.70;;;;;;;20.52;48.58;102337.00;5078391;28;20036;-50
2022/05/28 05:47:45;;;;;;;2.95;0.60;;;;;;;20.50;48.61;102336.28;5079277;28;20044;-50
2022/05/28 05:50:11;;;;;;;2.30;0.70;;;;;;;20.50;48.60;102342.50;5079569;28;20052;-49
2022/05/28 05:52:39;;;;;;;2.67;1.10;;;;;;;20.51;48.74;102344.25;5079391;28;20044;-50
2022/05/28 05:55:14;;;;;;;1.67;0.55;;;;;;;20.51;48.55;102344.25;5079357;28;20186;-49
2022/05/28 05:57:41;;;;;;;2.50;0.88;;;;;;;20.52;48.28;102345.09;5081062;28;20056;-50
2022/05/28 06:00:09;;;;;;;0.80;0.63;;;;;;;20.52;48.46;102348.63;5081651;28;20323;-47
2022/05/28 06:02:36;;;;;;;1.92;0.60;;;;;;;20.52;48.07;102347.78;5083617;28;20051;-47
2022/05/28 06:05:02;;;;;;;2.97;0.70;;;;;;;20.52;47.95;102358.56;5077531;28;20047;-50
2022/05/28 06:07:30;;;;;;;2.13;0.73;;;;;;;20.51;48.39;102344.25;5078408;28;20050;-48
2022/05/28 06:09:56;;;;;;;3.70;1.10;;;;;;;20.52;47.94;102347.78;5075902;28;20355;-48
2022/05/28 06:12:23;;;;;;;2.28;0.70;;;;;;;20.51;48.26;102355.00;5078891;28;20040;-48
2022/05/28 06:14:49;;;;;;;4.55;0.95;;;;;;;20.50;48.25;102352.44;5080845;28;20319;-50
2022/05/28 06:17:16;;;;;;;1.58;0.70;;;;;;;20.49;48.04;102354.28;5081864;28;20043;-47
2022/05/28 06:19:42;;;;;;;3.92;0.88;;;;;;;20.50;48.49;102357.81;5085527;28;20071;-50
2022/05/28 06:22:09;;;;;;;1.73;0.60;;;;;;;20.50;48.21;102361.38;5081396;28;20059;-48
2022/05/28 06:24:35;;;;;;;2.67;0.85;;;;;;;20.50;48.11;102364.06;5082492;28;20430;-48
2022/05/28 06:27:02;;;;;;;1.63;0.50;;;;;;;20.51;48.49;102359.53;5081008;28;20050;-47
2022/05/28 06:29:29;;;;;;;2.13;1.05;;;;;;;20.51;48.32;102357.72;5079028;28;20123;-47
2022/05/28 06:31:55;;;;;;;3.38;0.70;;;;;;;20.51;48.14;102362.25;5080806;28;20123;-50
2022/05/28 06:34:22;;;;;;;3.92;0.70;;;;;;;20.51;47.81;102360.41;5080449;28;20041;-46
2022/05/28 06:36:49;;;;;;;2.10;0.70;;;;;;;20.52;48.39;102363.94;5082404;28;20040;-48
2022/05/28 06:39:16;;;;;;;2.05;0.70;;;;;;;20.53;48.29;102361.09;5081048;28;20331;-46
2022/05/28 06:41:42;;;;;;;2.30;1.13;;;;;;;20.54;48.47;102361.94;5083649;28;20090;-50
2022/05/28 06:44:09;;;;;;;2.42;0.80;;;;;;;20.55;48.33;102361.84;5084156;28;20040;-47
2022/05/28 06:46:36;;;;;;;2.17;0.63;;;;;;;20.57;47.84;102359.84;5080604;28;20335;-48
2022/05/28 06:49:02;;;;;;;1.92;0.80;;;;;;;20.58;47.75;102366.09;5077667;28;20062;-51
2022/05/28 06:51:29;;;;;;;2.03;0.70;;;;;;;20.59;47.97;102357.03;5081567;28;20457;-49
2022/05/28 06:53:55;;;;;;;1.83;0.63;;;;;;;20.60;47.80;102362.28;5077936;28;20090;-50
2022/05/28 06:56:22;;;;;;;2.08;0.77;;;;;;;20.60;48.00;102370.38;5075711;28;20173;-48
2022/05/28 06:58:48;;;;;;;2.13;0.70;;;;;;;20.61;47.83;102363.97;5079876;28;20054;-49
2022/05/28 07:01:17;;;;;;;2.65;0.80;;;;;;;20.62;47.89;102365.72;5081707;28;20056;-47
2022/05/28 07:03:44;;;;;;;1.90;0.60;;;;;;;20.63;47.59;102362.03;5081294;28;20036;-47
2022/05/28 07:06:12;;;;;;;2.30;0.70;;;;;;;20.65;48.11;102367.25;5084078;28;20139;-45
2022/05/28 07:08:39;;;;;;;2.92;0.70;;;;;;;20.66;48.02;102382.44;5079893;28;20049;-48
2022/05/28 07:11:06;;;;;;;2.15;0.68;;;;;;;20.66;48.07;102358.19;5080884;28;20420;-48
2022/05/28 07:13:34;;;;;;;1.85;0.77;;;;;;;20.68;47.94;102362.47;5083023;28;20053;-47
2022/05/28 07:16:03;;;;;;;3.60;0.70;;;;;;;20.67;48.02;102368.84;5083236;28;20686;-50
2022/05/28 07:18:32;;;;;;;2.95;0.80;;;;;;;20.68;47.66;102372.41;5082016;28;20044;-45
2022/05/28 07:20:58;;;;;;;1.90;0.70;;;;;;;20.68;47.39;102372.41;5082614;28;20423;-47
2022/05/28 07:23:27;;;;;;;1.85;0.60;;;;;;;20.67;47.63;102368.84;5079319;28;20059;-49
2022/05/28 07:26:06;;;;;;;3.47;0.90;;;;;;;20.65;48.00;102370.81;5081280;28;20207;-51
2022/05/28 07:28:36;;;;;;;1.65;0.73;;;;;;;20.66;47.56;102377.94;5082453;28;20050;-46
2022/05/28 07:31:05;;;;;;;2.53;0.73;;;;;;;20.65;47.50;102376.19;5081176;28;20044;-47
2022/05/28 07:33:38;;;;;;;1.58;0.70;;;;;;;20.66;47.58;102368.97;5083430;28;20074;-50
2022/05/28 07:36:06;;;;;;;2.45;0.90;;;;;;;20.66;47.93;102382.44;5078735;28;20476;-49
2022/05/28 07:38:34;;;;;;;2.40;0.60;;;;;;;20.66;47.53;102380.63;5080714;28;20055;-47
2022/05/28 07:41:05;;;;;;;1.27;0.52;;;;;;;20.66;47.78;102383.31;5082257;28;20040;-47
2022/05/28 07:43:33;;;;;;;3.03;0.60;;;;;;;20.66;47.19;102372.53;5083313;28;20061;-48
2022/05/28 07:45:59;;;;;;;4.00;1.00;;;;;;;20.67;47.43;102373.38;5080709;28;20037;-52
2022/05/28 07:48:26;;;;;;;1.95;0.65;;;;;;;20.67;47.15;102382.31;5084453;28;20049;-49
2022/05/28 07:50:53;;;;;;;0.88;0.60;;;;;;;20.69;47.26;102372.25;5080908;28;20487;-46
2022/05/28 07:53:19;;;;;;;1.98;0.75;;;;;;;20.68;47.18;102385.88;5080796;28;20139;-48
2022/05/28 07:55:46;;;;;;;2.83;1.02;;;;;;;20.68;47.59;102378.63;5084298;28;20439;-48
2022/05/28 07:58:15;;;;;;;2.55;0.60;;;;;;;20.69;47.36;102380.34;5086713;28;20064;-49
2022/05/28 08:00:44;;;;;;;2.08;0.52;;;;;;;20.68;47.53;102386.72;5086228;28;20062;-46
2022/05/28 08:03:12;;;;;;;2.88;0.70;;;;;;;20.69;47.19;102379.47;5084923;28;20052;-49
2022/05/28 08:05:41;;;;;;;2.83;0.75;;;;;;;20.69;47.07;102374.94;5083778;28;20052;-51
2022/05/28 08:08:08;;;;;;;2.78;0.57;;;;;;;20.70;47.15;102373.97;5081291;28;20050;-49
2022/05/28 08:10:35;;;;;;;1.40;0.70;;;;;;;20.70;47.49;102376.69;5082270;28;20044;-50
2022/05/28 08:13:08;;;;;;;3.20;0.77;;;;;;;20.69;47.14;102374.09;5082665;28;20446;-49
2022/05/28 08:15:36;;;;;;;1.83;0.70;;;;;;;20.69;47.36;102377.63;5084467;28;20046;-46
2022/05/28 08:18:03;;;;;;;2.05;0.80;;;;;;;20.70;47.16;102378.50;5089012;28;20047;-49
2022/05/28 08:23:18;;;;;;;2.85;0.90;;;;;;;20.71;47.52;102385.59;5086984;28;20044;-49
2022/05/28 08:25:47;;;;;;;1.63;0.80;;;;;;;20.72;47.09;102378.38;5085040;28;20123;-46
2022/05/28 08:28:15;;;;;;;1.90;0.57;;;;;;;20.72;47.11;102376.53;5081076;28;20044;-50
2022/05/28 08:30:42;;;;;;;2.97;0.90;;;;;;;20.73;47.24;102377.38;5080994;28;20059;-47
2022/05/28 08:33:11;;;;;;;2.80;0.70;;;;;;;20.73;46.79;102374.69;5080582;28;20128;-49
2022/05/28 08:35:39;;;;;;;3.10;0.60;;;;;;;20.73;47.03;102378.22;5081003;28;20054;-51
2022/05/28 08:38:09;;;;;;;1.50;0.65;;;;;;;20.74;47.36;102379.91;5078719;28;20041;-47
2022/05/28 08:41:12;;;;;;;1.80;0.70;;;;;;;20.74;46.72;102382.63;5086048;28;20049;-48
2022/05/28 08:44:13;;;;;;;2.72;0.70;;;;;;;20.76;47.31;102385.19;5083485;28;20447;-48
2022/05/28 08:46:43;;;;;;;1.58;0.60;;;;;;;20.78;47.06;102372.44;5083622;28;20162;-49
2022/05/28 08:49:13;;;;;;;0.88;0.45;;;;;;;20.78;46.89;102377.81;5081699;28;20040;-50
2022/05/28 08:51:53;;;;;;;3.28;0.98;;;;;;;20.79;47.27;102375.00;5079258;28;20143;-50
2022/05/28 08:54:28;;;;;;;1.80;0.65;;;;;;;20.80;47.25;102387.50;5077397;28;20356;-51
2022/05/28 08:57:00;;;;;;;3.42;0.75;;;;;;;20.81;47.14;102382.94;5080670;28;20052;-47
2022/05/28 08:59:38;;;;;;;2.88;0.95;;;;;;;20.82;47.09;102387.34;5084236;28;20047;-49
2022/05/28 09:02:10;;;;;;;2.72;0.63;;;;;;;20.83;47.21;102386.38;5080712;28;20044;-46
2022/05/28 09:04:43;;;;;;;2.72;0.68;;;;;;;20.83;47.18;102386.38;5080158;28;20807;-45
2022/05/28 09:07:13;;;;;;;3.00;0.80;;;;;;;20.83;46.94;102384.53;5076228;28;20056;-45
2022/05/28 09:09:46;;;;;;;3.95;1.05;;;;;;;20.84;46.97;102378.16;5083841;28;20549;-50
2022/05/28 09:12:30;;;;;;;1.90;0.80;;;;;;;20.85;46.99;102387.06;5083388;28;20051;-47
2022/05/28 09:14:57;;;;;;;2.03;0.70;;;;;;;20.86;46.79;102389.63;5112294;27;20127;-46
2022/05/28 09:17:32;;;;;;;2.90;0.60;;;;;;;20.88;46.64;102384.13;5078689;28;20055;-47
2022/05/28 09:20:21;;;;;;;3.75;1.00;;;;;;;20.90;46.39;102387.53;5077047;28;20079;-47
2022/05/28 09:22:49;;;;;;;1.20;0.70;;;;;;;20.94;46.57;102378.19;5078730;28;20036;-50
2022/05/28 09:25:23;;;;;;;3.45;0.90;;;;;;;20.96;46.61;102376.22;5077675;28;20131;-47
2022/05/28 09:28:06;;;;;;;3.45;0.68;;;;;;;20.99;45.96;102384.03;5080599;28;20040;-48
2022/05/28 09:31:05;;;;;;;1.88;0.75;;;;;;;21.01;46.00;102390.13;5078117;28;20054;-50
2022/05/28 09:33:43;;;;;;;4.28;0.70;;;;;;;21.04;45.88;102386.31;5080736;28;20045;-51
2022/05/28 09:36:21;;;;;;;2.25;0.70;;;;;;;21.05;45.89;102383.47;5079541;28;20043;-48
2022/05/28 09:39:12;;;;;;;3.58;1.10;;;;;;;21.08;46.05;102388.59;5084640;28;20296;-49
2022/05/28 09:41:44;;;;;;;3.53;0.70;;;;;;;21.10;45.70;102383.91;5082427;28;20054;-49
2022/05/28 09:44:23;;;;;;;4.55;1.13;;;;;;;21.12;45.86;102387.34;5079425;28;20046;-50
2022/05/28 09:46:50;;;;;;;4.47;1.50;;;;;;;21.13;45.84;102380.94;5078558;28;20139;-50
2022/05/28 09:49:24;;;;;;;3.08;0.80;;;;;;;21.15;45.62;102380.84;5075248;28;20105;-46
2022/05/28 09:51:58;;;;;;;4.78;0.70;;;;;;;21.18;46.26;102384.09;5111506;27;20072;-48
2022/05/28 09:54:30;;;;;;;2.30;0.93;;;;;;;21.21;45.50;102374.88;5080184;28;20135;-47
2022/05/28 09:57:09;;;;;;;5.82;1.20;;;;;;;21.24;45.77;102387.25;5080845;28;20040;-49
2022/05/28 09:59:55;;;;;;;1.73;0.90;;;;;;;21.27;45.77;102387.81;5088202;28;20044;-46
2022/05/28 10:02:27;;;;;;;4.50;0.93;;;;;;;21.30;45.70;102390.22;5086340;28;20126;-52
2022/05/28 10:04:54;;;;;;;2.55;1.00;;;;;;;21.32;45.48;102369.41;5082893;28;20043;-48
2022/05/28 10:07:29;;;;;;;2.75;1.00;;;;;;;21.34;45.07;102375.50;5081076;28;20044;-48
2022/05/28 10:09:55;;;;;;;2.92;0.70;;;;;;;21.36;45.11;102362.75;5078948;28;20135;-47
2022/05/28 10:12:25;;;;;;;5.13;1.20;;;;;;;21.37;45.58;102366.28;5078655;28;20044;-48
2022/05/28 10:15:01;;;;;;;2.40;0.80;;;;;;;21.38;45.51;102358.06;5080551;28;20040;-49
2022/05/28 10:17:30;;;;;;;2.85;0.93;;;;;;;21.41;45.34;102367.72;5077320;28;20139;-50
2022/05/28 10:19:59;;;;;;;2.97;0.80;;;;;;;21.41;44.85;102368.56;5082110;28;20420;-53
2022/05/28 10:22:27;;;;;;;5.15;0.93;;;;;;;21.42;45.29;102364.88;5081284;28;20369;-51
2022/05/28 10:25:05;;;;;;;3.08;0.90;;;;;;;21.43;45.18;102363.91;5079598;28;20078;-49
2022/05/28 10:27:45;;;;;;;2.63;0.80;;;;;;;21.45;45.45;102363.75;5079679;28;20043;-51
2022/05/28 10:30:31;;;;;;;3.92;1.08;;;;;;;21.46;45.20;102373.53;5077083;28;20059;-49
2022/05/28 10:33:01;;;;;;;2.05;0.88;;;;;;;21.48;45.20;102363.47;5077917;28;20052;-52
2022/05/28 10:35:31;;;;;;;5.05;1.08;;;;;;;21.48;45.30;102371.56;5076084;28;20067;-47
2022/05/28 10:38:14;;;;;;;6.13;0.93;;;;;;;21.49;45.17;102367.88;5078900;28;20831;-49
2022/05/28 10:40:59;;;;;;;3.45;0.80;;;;;;;21.52;45.07;102361.38;5081270;28;20413;-48
2022/05/28 10:43:37;;;;;;;5.40;1.13;;;;;;;21.53;45.09;102365.75;5078186;28;20323;-49
2022/05/28 10:46:22;;;;;;;3.03;1.02;;;;;;;21.52;44.90;102370.31;5076504;28;20297;-46
2022/05/28 10:48:49;;;;;;;4.38;0.82;;;;;;;;;;5079063;28;20052;-49
2022/05/28 10:51:29;;;;;;;3.45;1.08;;;;;;;21.54;44.78;102372.84;5081319;28;20155;-49
2022/05/28 10:54:13;;;;;;;7.10;1.00;;;;;;;21.56;44.94;102373.56;5078454;28;20041;-51
2022/05/28 10:56:52;;;;;;;2.53;1.02;;;;;;;21.56;44.73;102362.78;5077717;28;20161;-52
2022/05/28 10:59:21;;;;;;;2.30;0.90;;;;;;;21.57;44.69;102359.94;5079145;28;20345;-50
2022/05/28 11:02:06;;;;;;;5.15;0.90;;;;;;;21.59;44.86;102354.41;5076722;28;20048;-50
2022/05/28 11:04:48;;;;;;;5.85;0.93;;;;;;;21.60;44.78;102365.06;5077414;28;20053;-47
2022/05/28 11:07:23;;;;;;;3.42;0.93;;;;;;;21.61;44.63;102363.22;5077812;28;20037;-46
2022/05/28 11:10:20;;;;;;;2.30;0.80;;;;;;;21.61;44.53;102364.06;5079765;28;20063;-49
2022/05/28 11:13:02;;;;;;;3.20;1.05;;;;;;;21.64;44.70;102358.38;5075659;28;20059;-50
2022/05/28 11:15:58;;;;;;;2.58;1.02;;;;;;;21.64;44.67;102358.38;5081020;28;20063;-50
2022/05/28 11:19:00;;;;;;;3.97;1.00;;;;;;;21.65;44.38;102351.16;5081637;28;20095;-47
2022/05/28 11:21:43;;;;;;;3.22;0.70;;;;;;;21.67;44.41;102352.72;5077983;28;20040;-47
2022/05/28 11:24:13;;;;;;;5.25;1.38;;;;;;;21.68;44.57;102348.16;5081225;28;20143;-51
2022/05/28 11:26:55;;;;;;;2.75;0.85;;;;;;;21.69;44.20;102350.72;5076637;28;20441;-47
2022/05/28 11:29:47;;;;;;;2.75;0.57;;;;;;;21.69;44.31;102349.88;5077005;28;20119;-48
2022/05/28 11:32:21;;;;;;;2.35;0.85;;;;;;;21.71;44.43;102356.00;5079745;28;20325;-49
2022/05/28 11:34:53;;;;;;;6.57;1.00;;;;;;;21.71;43.94;102344.31;5077993;28;20393;-50
2022/05/28 11:37:39;;;;;;;3.42;0.80;;;;;;;21.72;43.90;102343.34;5086653;28;20070;-48
2022/05/28 11:40:27;;;;;;;2.40;1.15;;;;;;;21.73;44.37;102340.50;5085232;28;20047;-51
2022/05/28 11:43:00;;;;;;;2.88;0.93;;;;;;;21.75;44.28;102343.03;5082711;28;20054;-49
2022/05/28 11:45:35;;;;;;;5.82;1.13;;;;;;;21.75;44.49;102349.31;5078075;28;20563;-47
2022/05/28 11:48:11;;;;;;;3.90;1.02;;;;;;;21.77;43.92;102349.16;5078305;28;20127;-47